Time;durP1;ratioP1;P1;durP2;ratioP2;P2;SDS_P1;SDS_P2;PMS_P1;PMS_P2;Temp;Humidity;BMP_temperature;BMP_pressure;BME280_temperature;BME280_humidity;BME280_pressure;Samples;Min_cycle;Max_cycle;Signal;HPM_P1;HPM_P2
2023/01/14 00:01:04;;;;;;;7.03;1.50;;;17.90;67.80;;;;;;5018859;28;45534;-72
2023/01/14 00:03:31;;;;;;;5.03;1.70;;;17.90;67.80;;;;;;5019259;28;45515;-71
2023/01/14 00:05:59;;;;;;;5.38;1.60;;;17.90;67.90;;;;;;5016294;28;47006;-72
2023/01/14 00:08:25;;;;;;;6.97;1.60;;;17.90;67.80;;;;;;5011223;28;45317;-74
2023/01/14 00:10:54;;;;;;;9.68;1.60;;;17.90;67.80;;;;;;5010880;28;45406;-72
2023/01/14 00:13:21;;;;;;;6.50;1.67;;;17.90;67.80;;;;;;5016208;28;45482;-73
2023/01/14 00:15:52;;;;;;;9.05;1.73;;;17.90;67.80;;;;;;5019804;28;47215;-71
2023/01/14 00:18:19;;;;;;;5.60;1.70;;;17.90;67.80;;;;;;5020226;28;45397;-72
2023/01/14 00:20:56;;;;;;;4.47;1.48;;;17.90;67.90;;;;;;5013465;28;45532;-72
2023/01/14 00:23:23;;;;;;;5.70;1.75;;;18.00;67.90;;;;;;5005123;28;45487;-72
2023/01/14 00:25:49;;;;;;;4.13;1.60;;;17.90;67.90;;;;;;5015967;28;47523;-71
2023/01/14 00:28:17;;;;;;;6.10;1.70;;;17.90;67.70;;;;;;5018749;28;45325;-72
2023/01/14 00:30:44;;;;;;;5.70;1.52;;;17.90;67.80;;;;;;5007715;28;45447;-72
2023/01/14 00:33:11;;;;;;;5.65;1.60;;;17.90;68.20;;;;;;5021575;28;45535;-72
2023/01/14 00:35:38;;;;;;;4.15;1.27;;;17.80;68.00;;;;;;5014067;28;45463;-71
2023/01/14 00:38:04;;;;;;;8.07;1.60;;;17.80;67.90;;;;;;5019802;28;45271;-72
2023/01/14 00:40:31;;;;;;;6.80;2.00;;;17.90;68.30;;;;;;5016065;28;45325;-72
2023/01/14 00:42:58;;;;;;;6.18;1.58;;;17.80;68.00;;;;;;5013422;28;45445;-71
2023/01/14 00:45:26;;;;;;;5.32;1.73;;;17.80;68.00;;;;;;5021087;28;48662;-72
2023/01/14 00:47:53;;;;;;;5.60;1.42;;;17.80;68.00;;;;;;5000634;28;45310;-73
2023/01/14 00:50:20;;;;;;;5.38;1.50;;;17.80;67.90;;;;;;5018252;28;45329;-71
2023/01/14 00:52:46;;;;;;;4.50;1.55;;;17.80;67.90;;;;;;5003839;28;45467;-72
2023/01/14 00:55:13;;;;;;;7.32;1.58;;;17.80;68.30;;;;;;5015730;28;47770;-73
2023/01/14 00:57:40;;;;;;;4.90;1.35;;;17.80;68.00;;;;;;5011282;28;45717;-72
2023/01/14 01:00:09;;;;;;;4.30;1.50;;;17.80;68.10;;;;;;5007782;28;45470;-71
2023/01/14 01:02:37;;;;;;;7.45;1.88;;;17.90;68.20;;;;;;5007835;28;45628;-72
2023/01/14 01:05:05;;;;;;;6.63;1.45;;;17.90;68.00;;;;;;5005165;28;48226;-72
2023/01/14 01:07:31;;;;;;;8.40;1.83;;;17.90;67.90;;;;;;5009201;28;45392;-72
2023/01/14 01:09:58;;;;;;;9.55;1.65;;;17.90;68.00;;;;;;5017932;28;45275;-72
2023/01/14 01:12:25;;;;;;;6.95;1.55;;;17.90;68.00;;;;;;5022227;28;45296;-72
2023/01/14 01:14:52;;;;;;;4.93;1.60;;;17.90;67.80;;;;;;5006876;28;47188;-72
2023/01/14 01:17:18;;;;;;;6.32;1.45;;;17.90;67.90;;;;;;5014278;28;45419;-72
2023/01/14 01:19:48;;;;;;;6.85;1.42;;;17.90;67.80;;;;;;5008997;28;45482;-72
2023/01/14 01:22:15;;;;;;;6.03;1.70;;;17.90;67.60;;;;;;5019283;28;45344;-72
2023/01/14 01:24:41;;;;;;;7.38;1.98;;;17.90;67.30;;;;;;5014375;28;46465;-71
2023/01/14 01:27:08;;;;;;;4.20;1.70;;;17.80;67.00;;;;;;5015511;28;45494;-73
2023/01/14 01:29:35;;;;;;;8.20;1.60;;;17.80;66.70;;;;;;5008849;28;45350;-72
2023/01/14 01:32:02;;;;;;;7.10;1.77;;;17.80;66.50;;;;;;5012227;28;45470;-73
2023/01/14 01:34:29;;;;;;;7.03;1.50;;;17.80;66.60;;;;;;5018722;28;47410;-71
2023/01/14 01:36:57;;;;;;;8.07;1.80;;;17.80;66.10;;;;;;4996362;28;45373;-72
2023/01/14 01:39:24;;;;;;;4.35;1.58;;;17.80;66.30;;;;;;5012236;28;45401;-71
2023/01/14 01:41:50;;;;;;;7.97;2.28;;;17.80;65.50;;;;;;5012651;28;45265;-71
2023/01/14 01:45:16;;;;;;;11.85;1.90;;;17.80;65.70;;;;;;5012656;28;45425;-73
2023/01/14 01:47:43;;;;;;;9.57;1.58;;;17.80;65.90;;;;;;5002599;28;45298;-74
2023/01/14 01:50:10;;;;;;;7.22;1.80;;;17.80;66.00;;;;;;5005899;28;45290;-73
2023/01/14 01:52:38;;;;;;;7.63;1.70;;;17.80;66.10;;;;;;5006931;28;45435;-74
2023/01/14 01:55:09;;;;;;;7.03;1.90;;;17.80;66.40;;;;;;5005948;28;48002;-74
2023/01/14 01:57:36;;;;;;;6.55;1.73;;;17.80;66.50;;;;;;5006527;28;45409;-73
2023/01/14 02:00:07;;;;;;;8.52;2.00;;;17.80;66.60;;;;;;5011078;28;45406;-74
2023/01/14 02:02:34;;;;;;;6.15;2.35;;;17.90;66.70;;;;;;5017495;28;45439;-74
2023/01/14 02:05:01;;;;;;;7.85;2.15;;;17.90;66.70;;;;;;5023573;28;46555;-74
2023/01/14 02:07:28;;;;;;;8.57;1.90;;;17.90;66.80;;;;;;5013921;28;45647;-74
2023/01/14 02:10:00;;;;;;;7.32;1.65;;;17.90;66.90;;;;;;5010891;28;45349;-74
2023/01/14 02:12:39;;;;;;;7.25;1.75;;;17.90;67.00;;;;;;5022056;28;45353;-74
2023/01/14 02:15:28;;;;;;;9.85;2.40;;;17.90;66.90;;;;;;5018257;28;46307;-73
2023/01/14 02:18:04;;;;;;;6.80;1.77;;;17.90;66.80;;;;;;5019249;28;45288;-74
2023/01/14 02:20:37;;;;;;;10.52;2.30;;;17.90;66.70;;;;;;5012470;28;45325;-74
2023/01/14 02:23:44;;;;;;;7.97;2.08;;;17.90;66.80;;;;;;5012887;28;45267;-73
2023/01/14 02:26:47;;;;;;;5.40;2.15;;;17.90;66.80;;;;;;5010694;28;48398;-73
2023/01/14 02:29:54;;;;;;;7.00;1.98;;;17.90;66.80;;;;;;5000918;28;45462;-73
2023/01/14 02:32:28;;;;;;;5.85;1.92;;;17.90;67.00;;;;;;4921057;28;45380;-73
2023/01/14 02:35:01;;;;;;;6.30;1.98;;;17.90;67.00;;;;;;4928712;28;45351;-73
2023/01/14 02:37:35;;;;;;;7.20;2.20;;;17.90;67.10;;;;;;4973520;28;47336;-73
2023/01/14 02:40:08;;;;;;;5.85;1.90;;;17.90;67.10;;;;;;5007877;28;45272;-73
2023/01/14 02:45:36;;;;;;;6.13;1.73;;;17.90;67.10;;;;;;5016427;28;45484;-72
2023/01/14 02:48:05;;;;;;;7.45;2.08;;;17.90;67.30;;;;;;5017426;28;46334;-72
2023/01/14 02:50:33;;;;;;;6.30;1.70;;;17.90;67.30;;;;;;5004337;28;45893;-72
2023/01/14 02:53:07;;;;;;;5.82;1.45;;;17.90;67.20;;;;;;5004767;28;46279;-72
2023/01/14 02:55:36;;;;;;;5.57;1.70;;;17.90;67.30;;;;;;4994017;28;45275;-72
2023/01/14 02:58:29;;;;;;;9.90;2.10;;;17.90;67.20;;;;;;5000511;28;45393;-72
2023/01/14 03:01:08;;;;;;;5.03;1.60;;;17.90;67.20;;;;;;5000997;28;45543;-72
2023/01/14 03:03:48;;;;;;;7.85;1.75;;;18.00;67.30;;;;;;5010804;28;45266;-72
2023/01/14 03:06:40;;;;;;;9.35;1.80;;;18.00;67.30;;;;;;5004698;28;45360;-72
2023/01/14 03:09:16;;;;;;;6.97;1.77;;;18.00;67.30;;;;;;4994576;28;48195;-72
2023/01/14 03:11:49;;;;;;;6.65;1.58;;;18.00;67.20;;;;;;5004375;28;45260;-72
2023/01/14 03:14:21;;;;;;;5.25;1.63;;;18.00;67.20;;;;;;5004329;28;45505;-72
2023/01/14 03:16:55;;;;;;;7.85;1.50;;;18.00;67.10;;;;;;4998852;28;45263;-72
2023/01/14 03:19:26;;;;;;;8.98;2.20;;;18.00;67.00;;;;;;4994700;28;46769;-72
2023/01/14 03:21:56;;;;;;;8.77;2.00;;;18.00;67.00;;;;;;5004759;28;45282;-72
2023/01/14 03:24:29;;;;;;;4.25;1.60;;;17.90;66.90;;;;;;5004722;28;45373;-72
2023/01/14 03:27:01;;;;;;;7.55;1.83;;;18.00;66.90;;;;;;5004635;28;45708;-72
2023/01/14 03:29:34;;;;;;;7.90;1.88;;;17.90;66.80;;;;;;5006470;28;45389;-72
2023/01/14 03:32:06;;;;;;;6.10;1.65;;;17.90;66.80;;;;;;5011126;28;45342;-72
2023/01/14 03:34:37;;;;;;;5.82;1.63;;;17.90;66.80;;;;;;5021653;28;45324;-73
2023/01/14 03:37:08;;;;;;;7.78;1.73;;;17.90;66.80;;;;;;5023395;28;45228;-72
2023/01/14 03:39:35;;;;;;;5.35;1.65;;;17.90;66.70;;;;;;5014411;28;47290;-72
2023/01/14 03:42:22;;;;;;;7.15;1.75;;;17.90;66.70;;;;;;5012229;28;45253;-73
2023/01/14 03:45:02;;;;;;;4.75;1.60;;;17.90;67.00;;;;;;5015087;28;45299;-73
2023/01/14 03:47:34;;;;;;;4.50;1.58;;;17.90;67.00;;;;;;5019257;28;45396;-74
2023/01/14 03:50:03;;;;;;;4.35;1.88;;;17.90;67.00;;;;;;5023456;28;46782;-73
2023/01/14 03:53:03;;;;;;;6.78;1.85;;;17.90;67.10;;;;;;5009734;28;45552;-72
2023/01/14 03:55:37;;;;;;;5.13;1.63;;;18.00;67.10;;;;;;5007102;28;45370;-72
2023/01/14 03:58:11;;;;;;;6.57;1.88;;;18.00;67.20;;;;;;5012621;28;45373;-72
2023/01/14 04:00:41;;;;;;;7.10;1.88;;;18.00;67.10;;;;;;5005317;28;45330;-72
2023/01/14 04:03:12;;;;;;;5.95;1.77;;;18.00;67.10;;;;;;5007695;28;45482;-72
2023/01/14 04:05:40;;;;;;;3.40;1.42;;;17.90;67.10;;;;;;5005320;28;45544;-72
2023/01/14 04:08:07;;;;;;;6.65;1.48;;;18.00;67.00;;;;;;5017483;28;45342;-72
2023/01/14 04:10:34;;;;;;;4.05;1.30;;;18.00;67.10;;;;;;5004451;28;48023;-72
2023/01/14 04:15:45;;;;;;;4.40;1.25;;;17.90;66.70;;;;;;5015293;28;45470;-72
2023/01/14 04:18:13;;;;;;;4.53;1.60;;;17.90;66.70;;;;;;5008715;28;45337;-72
2023/01/14 04:20:40;;;;;;;6.55;2.03;;;17.90;66.40;;;;;;5010630;28;47175;-72
2023/01/14 04:23:07;;;;;;;7.00;1.63;;;17.90;66.50;;;;;;5011470;28;45389;-72
2023/01/14 04:25:34;;;;;;;6.78;1.50;;;17.80;65.80;;;;;;5003143;28;45312;-72
2023/01/14 04:28:00;;;;;;;7.32;1.55;;;17.90;65.70;;;;;;5008163;28;45624;-72
2023/01/14 04:30:27;;;;;;;6.88;1.73;;;17.80;65.40;;;;;;5006351;28;46637;-72
2023/01/14 04:32:54;;;;;;;6.43;1.42;;;17.80;65.30;;;;;;5011149;28;45485;-72
2023/01/14 04:35:23;;;;;;;6.38;1.70;;;17.80;64.90;;;;;;5010752;28;45436;-71
2023/01/14 04:37:50;;;;;;;6.70;1.73;;;17.80;64.50;;;;;;5013881;28;45574;-72
2023/01/14 04:40:18;;;;;;;5.40;1.55;;;17.80;64.80;;;;;;5022765;28;45302;-72
2023/01/14 04:42:44;;;;;;;6.32;1.52;;;17.80;65.20;;;;;;5003576;28;45373;-72
2023/01/14 04:45:12;;;;;;;5.50;1.42;;;17.80;65.20;;;;;;5013359;28;45220;-72
2023/01/14 04:47:39;;;;;;;7.18;1.70;;;17.80;65.20;;;;;;5005034;28;45267;-72
2023/01/14 04:52:48;;;;;;;5.45;1.80;;;17.80;65.00;;;;;;5017564;28;45437;-71
2023/01/14 04:55:15;;;;;;;5.75;1.67;;;17.80;65.90;;;;;;5006791;28;45590;-71
2023/01/14 04:57:42;;;;;;;7.93;1.65;;;17.80;64.70;;;;;;5015241;28;45675;-72
2023/01/14 05:00:10;;;;;;;5.53;1.50;;;17.80;64.80;;;;;;5011458;28;45334;-73
2023/01/14 05:02:37;;;;;;;6.55;1.65;;;17.80;64.40;;;;;;5001305;28;45482;-72
2023/01/14 05:05:04;;;;;;;5.40;1.50;;;17.80;64.50;;;;;;4998886;28;45502;-72
2023/01/14 05:07:31;;;;;;;5.57;1.70;;;17.70;64.20;;;;;;5011349;28;45317;-72
2023/01/14 05:09:59;;;;;;;4.93;1.50;;;17.80;63.90;;;;;;5008980;28;46395;-72
2023/01/14 05:12:26;;;;;;;5.53;1.60;;;17.70;63.60;;;;;;5010247;28;45275;-72
2023/01/14 05:14:53;;;;;;;6.60;1.52;;;17.80;63.90;;;;;;5018775;28;45357;-72
2023/01/14 05:17:20;;;;;;;5.82;1.58;;;17.70;63.80;;;;;;5006071;28;45720;-72
2023/01/14 05:19:47;;;;;;;7.68;1.92;;;17.70;63.70;;;;;;5002648;28;46347;-73
2023/01/14 05:22:14;;;;;;;4.60;1.55;;;17.70;63.60;;;;;;5009942;28;45338;-73
2023/01/14 05:24:41;;;;;;;6.25;1.80;;;17.70;63.30;;;;;;5008821;28;45396;-74
2023/01/14 05:27:10;;;;;;;4.38;1.40;;;17.70;62.90;;;;;;5020669;28;45587;-73
2023/01/14 05:29:38;;;;;;;7.32;1.70;;;17.70;63.00;;;;;;5006841;28;45338;-73
2023/01/14 05:32:05;;;;;;;9.32;1.73;;;17.70;62.80;;;;;;5012146;28;45698;-73
2023/01/14 05:34:31;;;;;;;5.38;1.38;;;17.70;62.50;;;;;;5017980;28;45433;-72
2023/01/14 05:36:58;;;;;;;7.28;1.67;;;17.70;62.90;;;;;;5011339;28;45481;-71
2023/01/14 05:39:25;;;;;;;7.85;1.90;;;17.70;63.10;;;;;;5028828;28;46146;-73
2023/01/14 05:47:24;;;;;;;4.32;1.38;;;17.70;63.20;;;;;;5005711;28;45510;-73
2023/01/14 05:49:51;;;;;;;4.05;1.20;;;17.70;63.30;;;;;;5008757;28;46239;-72
2023/01/14 05:52:17;;;;;;;6.30;1.60;;;17.70;63.20;;;;;;5013063;28;45746;-73
2023/01/14 05:54:44;;;;;;;4.05;1.63;;;17.70;63.10;;;;;;5014875;28;45352;-73
2023/01/14 05:57:14;;;;;;;5.82;1.42;;;17.70;63.10;;;;;;5006427;28;45336;-73
2023/01/14 05:59:43;;;;;;;4.05;1.20;;;17.70;63.00;;;;;;4996757;28;47796;-73
2023/01/14 06:07:50;;;;;;;6.03;1.67;;;17.70;62.40;;;;;;5004116;28;45438;-72
2023/01/14 06:10:17;;;;;;;4.88;1.15;;;17.70;62.30;;;;;;5004645;28;45334;-72
2023/01/14 06:12:58;;;;;;;6.25;1.48;;;17.60;62.20;;;;;;5008313;28;45352;-73
2023/01/14 06:15:32;;;;;;;4.15;1.42;;;17.60;62.00;;;;;;5015774;28;45357;-73
2023/01/14 06:18:09;;;;;;;8.35;1.65;;;17.60;61.90;;;;;;5003556;28;45312;-72
2023/01/14 06:20:35;;;;;;;7.93;2.08;;;17.60;61.70;;;;;;5007267;28;45399;-72
2023/01/14 06:23:02;;;;;;;4.78;1.33;;;17.70;61.30;;;;;;5018977;28;45364;-73
2023/01/14 06:25:29;;;;;;;6.63;1.48;;;17.60;61.50;;;;;;5015756;28;45374;-73
2023/01/14 06:27:56;;;;;;;6.00;1.73;;;17.60;60.70;;;;;;5005655;28;45429;-73
2023/01/14 06:30:23;;;;;;;5.10;1.40;;;17.70;61.10;;;;;;5005513;28;45341;-73
2023/01/14 06:32:52;;;;;;;5.45;1.50;;;17.70;61.50;;;;;;5019183;28;45291;-72
2023/01/14 06:35:18;;;;;;;5.65;1.13;;;17.70;61.80;;;;;;5016253;28;45353;-72
2023/01/14 06:37:45;;;;;;;5.03;1.45;;;17.60;61.70;;;;;;5008121;28;45231;-72
2023/01/14 06:40:14;;;;;;;5.93;1.83;;;17.60;61.90;;;;;;5010144;28;46397;-73
2023/01/14 06:42:41;;;;;;;6.20;1.75;;;17.70;62.10;;;;;;5013267;28;45342;-73
2023/01/14 06:45:09;;;;;;;3.85;1.40;;;17.70;62.10;;;;;;5004618;28;45321;-72
2023/01/14 06:47:36;;;;;;;4.90;1.63;;;17.70;62.10;;;;;;5021033;28;45620;-72
2023/01/14 06:50:04;;;;;;;6.40;1.42;;;17.70;62.10;;;;;;5009989;28;46607;-74
2023/01/14 06:52:31;;;;;;;8.30;1.42;;;17.80;62.30;;;;;;5005498;28;45590;-73
2023/01/14 06:54:58;;;;;;;4.20;1.35;;;17.80;62.30;;;;;;5002168;28;45274;-73
2023/01/14 06:57:25;;;;;;;4.30;1.27;;;17.80;62.40;;;;;;5021163;28;45572;-72
2023/01/14 06:59:53;;;;;;;4.00;1.45;;;17.80;62.40;;;;;;5004967;28;45295;-73
2023/01/14 07:02:20;;;;;;;3.90;1.23;;;17.80;62.30;;;;;;5008199;28;45353;-72
2023/01/14 07:04:47;;;;;;;4.63;1.45;;;17.80;62.50;;;;;;5007638;28;45303;-72
2023/01/14 07:07:15;;;;;;;5.53;1.50;;;17.70;62.50;;;;;;5019355;28;45490;-72
2023/01/14 07:09:42;;;;;;;3.47;1.30;;;17.80;62.60;;;;;;5006518;28;47320;-72
2023/01/14 07:12:09;;;;;;;4.05;1.20;;;17.80;62.60;;;;;;4999611;28;45215;-72
2023/01/14 07:14:36;;;;;;;6.85;1.60;;;17.80;62.60;;;;;;5005900;28;45385;-72
2023/01/14 07:17:03;;;;;;;3.13;1.30;;;17.80;62.70;;;;;;5014880;28;45415;-73
2023/01/14 07:19:29;;;;;;;4.50;1.38;;;17.80;62.80;;;;;;5009823;28;45342;-73
2023/01/14 07:21:56;;;;;;;3.75;1.45;;;17.80;62.90;;;;;;5012289;28;45277;-73
2023/01/14 07:24:24;;;;;;;2.97;1.17;;;17.80;62.90;;;;;;5020402;28;45393;-73
2023/01/14 07:26:51;;;;;;;5.35;1.20;;;17.80;62.90;;;;;;5010590;28;45321;-72
2023/01/14 07:29:18;;;;;;;4.55;1.02;;;17.80;63.10;;;;;;5013174;28;46298;-73
2023/01/14 07:31:45;;;;;;;5.75;1.70;;;17.80;63.40;;;;;;5012686;28;45330;-72
2023/01/14 07:34:12;;;;;;;3.58;1.55;;;17.80;63.40;;;;;;4986938;28;45276;-72
2023/01/14 07:36:38;;;;;;;6.22;1.30;;;17.80;63.50;;;;;;5011871;28;45342;-73
2023/01/14 07:39:05;;;;;;;5.13;1.55;;;17.80;63.50;;;;;;5011611;28;47983;-72
2023/01/14 07:41:33;;;;;;;3.72;1.23;;;17.80;63.50;;;;;;5020095;28;45343;-72
2023/01/14 07:44:02;;;;;;;3.90;1.40;;;17.80;63.50;;;;;;5016962;28;45368;-73
2023/01/14 07:46:29;;;;;;;2.55;1.08;;;17.80;63.60;;;;;;5003279;28;45338;-73
2023/01/14 07:48:56;;;;;;;2.67;1.15;;;17.80;63.60;;;;;;5007929;28;48138;-72
2023/01/14 07:51:23;;;;;;;4.22;1.23;;;17.80;64.70;;;;;;5005461;28;45527;-72
2023/01/14 07:53:51;;;;;;;5.20;1.50;;;17.80;63.60;;;;;;5000343;28;45554;-73
2023/01/14 07:56:18;;;;;;;4.40;1.25;;;17.80;63.80;;;;;;4992693;28;45419;-72
2023/01/14 07:58:47;;;;;;;3.58;0.95;;;17.80;63.80;;;;;;4996905;28;46742;-73
2023/01/14 08:01:14;;;;;;;2.63;1.13;;;17.80;63.60;;;;;;4998513;28;45414;-73
2023/01/14 08:03:41;;;;;;;2.78;0.82;;;17.80;63.80;;;;;;4998642;28;45428;-72
2023/01/14 08:06:08;;;;;;;3.90;1.30;;;17.80;64.00;;;;;;5007786;28;45332;-73
2023/01/14 08:08:35;;;;;;;4.38;1.13;;;17.70;63.90;;;;;;5002606;28;45539;-73
2023/01/14 08:11:03;;;;;;;3.13;0.98;;;17.70;64.00;;;;;;4995444;28;46491;-73
2023/01/14 08:13:31;;;;;;;2.90;0.95;;;17.70;64.10;;;;;;5005808;28;45369;-72
2023/01/14 08:16:01;;;;;;;2.63;1.10;;;17.70;64.10;;;;;;5000582;28;45385;-72
2023/01/14 08:18:29;;;;;;;2.08;0.85;;;17.70;64.70;;;;;;5006882;28;45672;-72
2023/01/14 08:20:59;;;;;;;3.08;1.27;;;17.70;64.70;;;;;;5007199;28;45350;-73
2023/01/14 08:23:26;;;;;;;3.80;1.38;;;17.70;64.70;;;;;;5006957;28;45370;-72
2023/01/14 08:25:53;;;;;;;3.65;0.88;;;17.80;64.60;;;;;;5000747;28;45522;-72
2023/01/14 08:28:20;;;;;;;2.88;1.05;;;17.80;64.60;;;;;;5010881;28;47582;-73
2023/01/14 08:30:47;;;;;;;3.17;1.25;;;17.80;64.50;;;;;;5010535;28;45725;-72
2023/01/14 08:33:15;;;;;;;2.40;1.02;;;17.80;64.50;;;;;;5007898;28;45416;-71
2023/01/14 08:35:42;;;;;;;3.80;0.95;;;17.80;64.40;;;;;;5011361;28;45392;-72
2023/01/14 08:38:09;;;;;;;2.45;1.05;;;17.80;64.40;;;;;;5010872;28;47934;-73
2023/01/14 08:40:35;;;;;;;3.42;1.30;;;17.80;64.50;;;;;;5004793;28;45327;-73
2023/01/14 08:43:02;;;;;;;2.60;0.93;;;17.80;64.50;;;;;;5002908;28;45289;-72
2023/01/14 08:45:29;;;;;;;1.83;0.88;;;17.80;64.50;;;;;;5006895;28;45319;-72
2023/01/14 08:47:57;;;;;;;1.75;0.80;;;17.80;64.50;;;;;;5003734;28;46630;-73
2023/01/14 08:50:25;;;;;;;2.30;0.80;;;17.80;64.50;;;;;;5012472;28;45412;-72
2023/01/14 08:52:52;;;;;;;1.63;1.00;;;17.80;64.70;;;;;;5019471;28;45295;-72
2023/01/14 08:55:19;;;;;;;2.80;0.95;;;17.80;64.70;;;;;;5014381;28;45299;-72
2023/01/14 08:57:46;;;;;;;2.42;0.80;;;17.80;64.80;;;;;;5008495;28;45503;-72
2023/01/14 09:00:14;;;;;;;2.13;0.98;;;17.80;64.80;;;;;;5004444;28;45330;-72
2023/01/14 09:02:40;;;;;;;2.42;1.08;;;17.80;64.80;;;;;;5003133;28;45457;-72
2023/01/14 09:05:08;;;;;;;2.20;1.02;;;17.80;64.80;;;;;;4991741;28;45521;-71
2023/01/14 09:18:35;;;;;;;1.35;0.70;;;17.80;65.00;;;;;;4994167;28;45688;-73
2023/01/14 09:21:01;;;;;;;3.08;0.82;;;17.80;65.00;;;;;;5013041;28;45207;-72
2023/01/14 09:23:29;;;;;;;1.45;0.70;;;17.80;64.80;;;;;;5002078;28;45395;-73
2023/01/14 09:25:56;;;;;;;1.67;0.60;;;17.80;65.00;;;;;;5012734;28;45315;-72
2023/01/14 09:28:23;;;;;;;1.45;0.70;;;17.80;64.90;;;;;;5002777;28;46350;-72
2023/01/14 09:30:50;;;;;;;1.67;0.70;;;17.80;65.00;;;;;;5018881;28;45444;-73
2023/01/14 09:33:17;;;;;;;2.17;0.80;;;17.80;65.10;;;;;;5007917;28;45500;-72
2023/01/14 09:35:43;;;;;;;1.30;0.70;;;17.80;65.20;;;;;;5002706;28;45322;-72
2023/01/14 09:38:10;;;;;;;2.38;0.80;;;17.80;66.20;;;;;;5006954;28;47440;-72
2023/01/14 09:40:39;;;;;;;1.85;0.63;;;17.80;65.20;;;;;;5012319;28;45513;-72
2023/01/14 09:43:14;;;;;;;1.48;0.80;;;17.80;65.20;;;;;;5007602;28;45346;-72
2023/01/14 09:45:42;;;;;;;2.47;0.80;;;17.80;65.20;;;;;;5001244;28;45384;-72
2023/01/14 09:48:14;;;;;;;1.52;0.52;;;17.80;65.30;;;;;;5002908;28;47948;-72
2023/01/14 09:50:52;;;;;;;1.15;0.60;;;17.80;65.10;;;;;;5010135;28;45404;-72
2023/01/14 09:53:36;;;;;;;2.47;0.70;;;17.70;64.80;;;;;;5004045;28;45377;-72
2023/01/14 09:56:11;;;;;;;2.75;0.50;;;17.70;65.20;;;;;;5000635;28;45528;-72
2023/01/14 09:58:43;;;;;;;1.20;0.52;;;17.70;64.90;;;;;;5002742;28;45545;-72
2023/01/14 10:01:17;;;;;;;1.05;0.50;;;17.70;64.70;;;;;;4999976;28;45776;-72
2023/01/14 10:03:51;;;;;;;1.48;0.57;;;17.70;64.70;;;;;;4993504;28;45566;-73
2023/01/14 10:06:19;;;;;;;1.23;0.50;;;17.70;64.50;;;;;;5000509;28;45485;-73
2023/01/14 10:08:48;;;;;;;2.17;0.63;;;17.70;64.40;;;;;;5001214;28;47064;-72
2023/01/14 10:11:17;;;;;;;1.25;0.40;;;17.70;64.30;;;;;;5003730;28;45496;-72
2023/01/14 10:13:48;;;;;;;2.17;0.95;;;17.70;64.40;;;;;;5015580;28;45419;-73
2023/01/14 10:16:20;;;;;;;1.60;0.65;;;17.70;64.30;;;;;;5010099;28;45524;-73
2023/01/14 10:18:52;;;;;;;2.80;0.57;;;17.80;64.40;;;;;;5008221;28;45275;-73
2023/01/14 10:21:27;;;;;;;1.88;0.50;;;17.80;64.30;;;;;;5016156;28;45357;-73
2023/01/14 10:23:54;;;;;;;1.25;0.50;;;17.80;64.20;;;;;;5025176;28;45456;-72
2023/01/14 10:26:32;;;;;;;1.33;0.40;;;17.80;64.10;;;;;;5009640;28;45540;-72
2023/01/14 10:29:03;;;;;;;1.65;0.52;;;17.80;64.00;;;;;;5010592;28;46630;-72
2023/01/14 10:31:31;;;;;;;1.20;0.50;;;17.80;64.00;;;;;;5025272;28;45498;-73
2023/01/14 10:33:58;;;;;;;1.52;0.80;;;17.80;64.20;;;;;;5005536;28;45308;-73
2023/01/14 10:36:29;;;;;;;1.20;0.50;;;17.80;64.30;;;;;;5001859;28;45302;-72
2023/01/14 10:38:56;;;;;;;0.60;0.30;;;17.80;64.40;;;;;;5006455;28;45326;-73
2023/01/14 10:44:06;;;;;;;3.17;0.65;;;17.80;64.40;;;;;;4999400;28;45299;-74
2023/01/14 10:46:33;;;;;;;1.80;0.50;;;17.80;64.40;;;;;;5004651;28;45470;-72
2023/01/14 10:49:05;;;;;;;0.50;0.30;;;17.90;64.50;;;;;;5009279;28;46365;-73
2023/01/14 10:51:35;;;;;;;2.38;0.52;;;17.80;64.90;;;;;;5007263;28;45428;-72
2023/01/14 10:54:11;;;;;;;4.15;0.60;;;17.90;65.00;;;;;;5007017;28;45401;-73
2023/01/14 10:56:42;;;;;;;4.43;0.90;;;17.90;65.50;;;;;;5019497;28;45254;-72
2023/01/14 10:59:42;;;;;;;5.85;0.80;;;17.80;65.20;;;;;;5017540;28;45437;-72
2023/01/14 11:02:27;;;;;;;1.52;0.40;;;17.90;65.60;;;;;;4997695;28;45447;-72
2023/01/14 11:04:56;;;;;;;2.58;0.60;;;17.90;65.80;;;;;;5001655;28;45496;-73
2023/01/14 11:07:27;;;;;;;1.75;0.60;;;17.90;65.90;;;;;;5002692;28;45527;-73
2023/01/14 11:09:56;;;;;;;3.63;0.70;;;17.90;66.30;;;;;;5001390;28;47269;-72
2023/01/14 11:12:29;;;;;;;3.88;0.80;;;17.90;66.30;;;;;;5007143;28;45413;-73
2023/01/14 11:14:56;;;;;;;1.48;0.68;;;17.90;66.90;;;;;;5002300;28;45354;-72
2023/01/14 11:17:24;;;;;;;2.90;0.60;;;18.00;66.80;;;;;;5005112;28;45375;-73
2023/01/14 11:19:51;;;;;;;1.05;0.30;;;18.00;66.50;;;;;;5019696;28;47046;-72
2023/01/14 11:22:19;;;;;;;1.27;0.50;;;18.00;66.80;;;;;;5003196;28;45394;-73
2023/01/14 11:24:52;;;;;;;5.18;0.55;;;18.00;67.10;;;;;;5004019;28;45396;-72
2023/01/14 11:27:22;;;;;;;2.67;0.60;;;18.00;67.20;;;;;;5004410;28;45373;-73
2023/01/14 11:29:53;;;;;;;2.63;0.47;;;18.00;67.30;;;;;;5012218;28;46570;-73
2023/01/14 11:32:24;;;;;;;2.03;0.43;;;17.90;67.30;;;;;;5004233;28;45318;-73
2023/01/14 11:34:53;;;;;;;2.53;0.57;;;17.90;67.00;;;;;;5010481;28;45372;-72
2023/01/14 11:37:22;;;;;;;2.30;0.57;;;18.00;67.40;;;;;;5016433;28;45298;-73
2023/01/14 11:39:51;;;;;;;1.23;0.40;;;18.00;67.40;;;;;;5014995;28;45427;-73
2023/01/14 11:42:34;;;;;;;1.17;0.60;;;18.00;67.50;;;;;;5011154;28;45382;-73
2023/01/14 11:45:04;;;;;;;0.80;0.30;;;17.90;67.50;;;;;;5003805;28;45529;-72
2023/01/14 11:47:45;;;;;;;1.13;0.50;;;18.00;67.70;;;;;;5008221;28;45295;-73
2023/01/14 11:50:16;;;;;;;2.05;0.50;;;18.00;67.70;;;;;;5009215;28;46101;-73
2023/01/14 11:52:56;;;;;;;2.15;0.60;;;17.90;67.60;;;;;;5004248;28;45242;-72
2023/01/14 11:55:25;;;;;;;0.90;0.50;;;18.00;67.60;;;;;;5019909;28;45456;-72
2023/01/14 11:57:51;;;;;;;0.73;0.30;;;18.00;67.70;;;;;;4995600;28;45414;-73
2023/01/14 12:00:21;;;;;;;2.20;0.50;;;18.00;67.80;;;;;;5004663;28;46475;-72
2023/01/14 12:02:57;;;;;;;0.50;0.30;;;18.00;67.70;;;;;;5007349;28;45330;-72
2023/01/14 12:05:25;;;;;;;1.88;0.65;;;18.00;67.70;;;;;;5003094;28;45320;-72
2023/01/14 12:07:55;;;;;;;1.92;0.38;;;17.90;67.80;;;;;;5006164;28;45567;-73
2023/01/14 12:10:26;;;;;;;0.63;0.50;;;17.90;67.90;;;;;;4999127;28;46594;-72
2023/01/14 12:18:36;;;;;;;0.40;0.30;;;17.90;68.00;;;;;;5008433;28;45370;-73
2023/01/14 12:21:06;;;;;;;1.15;0.40;;;17.90;68.10;;;;;;5011552;28;47114;-73
2023/01/14 12:23:41;;;;;;;0.22;0.22;;;17.90;68.10;;;;;;5001305;28;45298;-73
2023/01/14 12:26:16;;;;;;;0.10;0.10;;;17.90;67.90;;;;;;5008159;28;45437;-73
2023/01/14 12:28:48;;;;;;;0.50;0.30;;;17.90;68.00;;;;;;5002386;28;45303;-72
2023/01/14 12:31:22;;;;;;;2.50;0.43;;;17.90;68.20;;;;;;5003601;28;46534;-72
2023/01/14 12:33:54;;;;;;;0.25;0.20;;;17.90;68.20;;;;;;5015160;28;45339;-72
2023/01/14 12:36:23;;;;;;;0.45;0.20;;;17.90;68.10;;;;;;5000728;28;45324;-73
2023/01/14 12:47:23;;;;;;;0.60;0.30;;;17.90;68.20;;;;;;5012855;28;45333;-72
2023/01/14 12:49:50;;;;;;;0.70;0.30;;;17.90;68.20;;;;;;5016581;28;45365;-73
2023/01/14 12:52:27;;;;;;;0.70;0.30;;;17.90;68.40;;;;;;5001482;28;45385;-72
2023/01/14 12:54:55;;;;;;;0.80;0.35;;;17.90;68.50;;;;;;4995183;28;45274;-73
2023/01/14 12:57:24;;;;;;;0.47;0.20;;;17.90;68.50;;;;;;4994778;28;45422;-71
2023/01/14 12:59:55;;;;;;;1.65;0.20;;;17.90;68.60;;;;;;5002225;28;45544;-72
2023/01/14 13:02:31;;;;;;;0.77;0.30;;;17.90;68.70;;;;;;5010215;28;48387;-73
2023/01/14 13:05:03;;;;;;;0.38;0.30;;;17.90;68.70;;;;;;5007676;28;45357;-73
2023/01/14 13:07:33;;;;;;;0.43;0.25;;;17.90;68.70;;;;;;5007124;28;45342;-73
2023/01/14 13:10:02;;;;;;;1.95;0.40;;;17.90;68.70;;;;;;5018248;28;45398;-72
2023/01/14 13:12:33;;;;;;;0.20;0.20;;;17.90;68.70;;;;;;5002466;28;46328;-73
2023/01/14 13:15:03;;;;;;;1.05;0.40;;;17.90;68.70;;;;;;5001986;28;45401;-73
2023/01/14 13:17:35;;;;;;;2.25;0.30;;;17.90;68.70;;;;;;4998494;28;45425;-73
2023/01/14 13:20:06;;;;;;;0.40;0.10;;;17.90;68.60;;;;;;5002372;28;45182;-73
2023/01/14 13:22:46;;;;;;;0.20;0.20;;;17.90;68.60;;;;;;5019708;28;45434;-73
2023/01/14 13:25:35;;;;;;;0.60;0.20;;;17.90;68.60;;;;;;5000980;28;45412;-73
2023/01/14 13:28:04;;;;;;;0.28;0.20;;;17.90;68.80;;;;;;5003895;28;45452;-73
2023/01/14 13:30:53;;;;;;;0.60;0.30;;;17.90;68.80;;;;;;5004540;28;45388;-73
2023/01/14 13:33:27;;;;;;;0.30;0.13;;;18.00;68.90;;;;;;5004418;28;47760;-73
2023/01/14 13:36:19;;;;;;;0.60;0.20;;;17.90;68.80;;;;;;5002792;28;45310;-73
2023/01/14 13:39:01;;;;;;;0.95;0.30;;;17.90;68.80;;;;;;5004985;28;45339;-73
2023/01/14 13:41:37;;;;;;;5.78;0.70;;;17.90;68.80;;;;;;5002861;28;45452;-74
2023/01/14 13:44:05;;;;;;;6.25;0.52;;;18.00;69.50;;;;;;5009516;28;46076;-73
2023/01/14 13:46:35;;;;;;;2.85;0.30;;;18.00;69.50;;;;;;5016239;28;45532;-73
2023/01/14 13:49:05;;;;;;;2.30;0.30;;;18.00;69.50;;;;;;5010849;28;45580;-75
2023/01/14 13:51:39;;;;;;;0.88;0.25;;;17.90;69.40;;;;;;5008535;28;45587;-73